Oakland, California
Current Conditions -  °F | °C
As of 2:53 AM on Monday 20 Oct 2014 (Local Time) from KOAK Reporting Station
Scattered Clouds Scattered Clouds  
Wind Chill: 63°   Ceiling: Unl
Heat Index: 63°   Visibility: 10mi
Dew Point: 55°   Wind: 6mph
Humidity: 75%   Direction: 210°SSW
Pressure: 29.92"   Gusts: NA
Location:  37.81°N, 122.27°W
Report Text: KOAK 200953Z 21005KT 10SM SCT022 17/13 A2992 RMK AO2 SLP131 T01720128
Loading
Personal Weather Stations






























Interactive Weather Map New forecast layout! Learn more

10-Day Weather Forecast

Advertisements
Track Severe Weather on mobile